Time,TemperatureF,DewpointF,PressureIn,WindDirection,WindDirectionDegrees,WindSpeedMPH,WindSpeedGustMPH,Humidity,HourlyPrecipIn,Conditions,Clouds,dailyrainin,SoftwareType,DateUTC
2013-10-10 00:02:00,56.5,50.0,29.96,ESE,113,0.4,0.4,79,0.00,,,0.00,WUHU216HW,2013-10-10 05:02:00,
2013-10-10 00:07:00,56.5,50.0,29.96,SE,135,0.2,0.4,79,0.00,,,0.00,WUHU216HW,2013-10-10 05:07:00,
2013-10-10 00:12:00,56.3,49.9,29.96,ESE,113,0.2,0.4,79,0.00,,,0.00,WUHU216HW,2013-10-10 05:12:00,
2013-10-10 00:17:00,56.2,49.7,29.96,ESE,113,0.4,0.4,79,0.00,,,0.00,WUHU216HW,2013-10-10 05:17:00,
2013-10-10 00:22:00,56.2,50.0,29.96,ESE,113,0.2,0.4,80,0.00,,,0.00,WUHU216HW,2013-10-10 05:22:00,
2013-10-10 00:27:00,56.0,49.9,29.96,ESE,113,0.4,0.4,80,0.00,,,0.00,WUHU216HW,2013-10-10 05:27:00,
2013-10-10 00:32:00,56.0,49.9,29.96,ESE,113,0.6,0.7,80,0.00,,,0.00,WUHU216HW,2013-10-10 05:32:00,
2013-10-10 00:37:00,55.8,49.7,29.96,ESE,113,0.0,0.7,80,0.00,,,0.00,WUHU216HW,2013-10-10 05:37:00,
2013-10-10 00:42:00,55.8,49.7,29.96,ESE,113,0.0,0.4,80,0.00,,,0.00,WUHU216HW,2013-10-10 05:42:00,
2013-10-10 00:47:00,55.8,50.1,29.96,ESE,113,0.4,0.4,81,0.00,,,0.00,WUHU216HW,2013-10-10 05:47:00,
2013-10-10 00:52:00,55.8,50.1,29.96,ESE,113,0.6,0.9,81,0.00,,,0.00,WUHU216HW,2013-10-10 05:52:00,
2013-10-10 00:57:00,55.8,50.1,29.96,ESE,121,1.5,1.8,81,0.00,,,0.00,WUHU216HW,2013-10-10 05:57:00,
2013-10-10 01:02:00,55.6,49.9,29.96,SE,135,0.4,1.8,81,0.00,,,0.00,WUHU216HW,2013-10-10 06:02:00,
2013-10-10 01:07:00,55.6,49.9,29.96,SE,135,0.2,0.7,81,0.00,,,0.00,WUHU216HW,2013-10-10 06:07:00,
2013-10-10 01:12:00,55.6,49.9,29.96,ESE,113,0.4,0.7,81,0.00,,,0.00,WUHU216HW,2013-10-10 06:12:00,
2013-10-10 01:17:00,55.4,49.7,29.96,ESE,113,1.2,1.3,81,0.00,,,0.00,WUHU216HW,2013-10-10 06:17:00,
2013-10-10 01:22:00,55.4,49.7,29.96,ESE,121,0.6,1.3,81,0.00,,,0.00,WUHU216HW,2013-10-10 06:22:00,
2013-10-10 01:27:00,55.4,49.7,29.96,ESE,113,0.0,1.1,81,0.00,,,0.00,WUHU216HW,2013-10-10 06:27:00,
2013-10-10 01:32:00,55.4,50.0,29.96,ESE,113,0.2,0.4,82,0.00,,,0.00,WUHU216HW,2013-10-10 06:32:00,
2013-10-10 01:37:00,55.3,49.5,29.96,ESE,113,0.3,0.4,81,0.00,,,0.00,WUHU216HW,2013-10-10 06:37:00,
2013-10-10 01:42:00,55.3,49.5,29.97,SE,135,0.0,0.4,81,0.00,,,0.00,WUHU216HW,2013-10-10 06:42:00,
2013-10-10 01:47:00,55.1,49.7,29.97,SE,135,0.0,0.0,82,0.00,,,0.00,WUHU216HW,2013-10-10 06:47:00,
2013-10-10 01:52:00,55.1,49.7,29.97,ESE,113,0.0,0.0,82,0.00,,,0.00,WUHU216HW,2013-10-10 06:52:00,
2013-10-10 01:57:00,55.1,49.7,29.97,ESE,113,0.0,0.0,82,0.00,,,0.00,WUHU216HW,2013-10-10 06:57:00,
2013-10-10 02:02:00,55.1,49.7,29.97,ESE,113,0.0,0.0,82,0.00,,,0.00,WUHU216HW,2013-10-10 07:02:00,
2013-10-10 02:07:00,55.1,49.7,29.97,ESE,113,0.0,0.2,82,0.00,,,0.00,WUHU216HW,2013-10-10 07:07:00,
2013-10-10 02:12:00,54.9,49.5,29.97,ESE,113,0.0,0.2,82,0.00,,,0.00,WUHU216HW,2013-10-10 07:12:00,
2013-10-10 02:17:00,54.9,49.5,29.97,ESE,113,0.0,0.0,82,0.00,,,0.00,WUHU216HW,2013-10-10 07:17:00,
2013-10-10 02:22:00,54.7,49.3,29.97,ESE,113,0.0,0.0,82,0.00,,,0.00,WUHU216HW,2013-10-10 07:22:00,
2013-10-10 02:27:00,54.5,49.1,29.97,ESE,113,0.0,0.0,82,0.00,,,0.00,WUHU216HW,2013-10-10 07:27:00,
2013-10-10 02:32:00,54.5,49.1,29.97,ESE,113,0.0,0.0,82,0.00,,,0.00,WUHU216HW,2013-10-10 07:32:00,
2013-10-10 02:37:00,54.5,49.1,29.97,ESE,113,0.0,0.0,82,0.00,,,0.00,WUHU216HW,2013-10-10 07:37:00,
2013-10-10 02:42:00,54.4,49.0,29.97,ESE,113,0.0,0.0,82,0.00,,,0.00,WUHU216HW,2013-10-10 07:42:00,
2013-10-10 02:47:00,54.2,48.8,29.97,ESE,113,0.0,0.0,82,0.00,,,0.00,WUHU216HW,2013-10-10 07:47:00,
2013-10-10 02:52:00,53.8,48.5,29.97,ESE,113,0.0,0.0,82,0.00,,,0.00,WUHU216HW,2013-10-10 07:52:00,
2013-10-10 02:57:00,53.6,48.6,29.97,ESE,113,0.0,0.0,83,0.00,,,0.00,WUHU216HW,2013-10-10 07:57:00,
2013-10-10 03:02:00,53.3,48.2,29.97,ESE,113,0.0,0.0,83,0.00,,,0.00,WUHU216HW,2013-10-10 08:02:00,
2013-10-10 03:07:00,53.1,48.1,29.97,ESE,113,0.0,0.0,83,0.00,,,0.00,WUHU216HW,2013-10-10 08:07:00,
2013-10-10 03:12:00,52.9,47.9,29.97,ESE,113,0.0,0.0,83,0.00,,,0.00,WUHU216HW,2013-10-10 08:12:00,
2013-10-10 03:17:00,52.9,47.9,29.97,ESE,113,0.0,0.0,83,0.00,,,0.00,WUHU216HW,2013-10-10 08:17:00,
2013-10-10 03:22:00,52.7,47.7,29.97,ESE,113,0.0,0.0,83,0.00,,,0.00,WUHU216HW,2013-10-10 08:22:00,
2013-10-10 03:27:00,52.6,47.9,29.96,ESE,113,0.0,0.0,84,0.00,,,0.00,WUHU216HW,2013-10-10 08:27:00,
2013-10-10 03:32:00,52.6,47.9,29.96,ESE,113,0.0,0.0,84,0.00,,,0.00,WUHU216HW,2013-10-10 08:32:00,
2013-10-10 03:37:00,52.6,47.9,29.97,ESE,113,0.0,0.0,84,0.00,,,0.00,WUHU216HW,2013-10-10 08:37:00,
2013-10-10 03:42:00,52.6,47.9,29.97,ESE,113,0.0,0.0,84,0.00,,,0.00,WUHU216HW,2013-10-10 08:42:00,
2013-10-10 03:47:00,52.6,47.9,29.97,ESE,113,0.0,0.0,84,0.00,,,0.00,WUHU216HW,2013-10-10 08:47:00,
2013-10-10 03:52:00,52.6,47.9,29.97,ESE,113,0.0,0.0,84,0.00,,,0.00,WUHU216HW,2013-10-10 08:52:00,
2013-10-10 03:57:00,52.6,48.2,29.97,ESE,113,0.0,0.0,85,0.00,,,0.00,WUHU216HW,2013-10-10 08:57:00,
2013-10-10 04:02:00,52.7,48.3,29.97,ESE,113,0.0,0.0,85,0.00,,,0.00,WUHU216HW,2013-10-10 09:02:00,
2013-10-10 04:07:00,52.7,48.3,29.97,ESE,113,0.0,0.0,85,0.00,,,0.00,WUHU216HW,2013-10-10 09:07:00,
2013-10-10 04:12:00,52.7,48.3,29.97,ESE,113,0.0,0.0,85,0.00,,,0.00,WUHU216HW,2013-10-10 09:12:00,
2013-10-10 04:17:00,52.9,48.5,29.97,ESE,113,0.0,0.0,85,0.00,,,0.00,WUHU216HW,2013-10-10 09:17:00,
2013-10-10 04:22:00,52.9,48.5,29.97,ESE,113,0.0,0.0,85,0.00,,,0.00,WUHU216HW,2013-10-10 09:22:00,
2013-10-10 04:27:00,52.7,48.3,29.97,ESE,113,0.0,0.0,85,0.00,,,0.00,WUHU216HW,2013-10-10 09:27:00,
2013-10-10 04:32:00,52.7,48.6,29.97,ESE,113,0.0,0.0,86,0.00,,,0.00,WUHU216HW,2013-10-10 09:32:00,
2013-10-10 04:37:00,52.7,48.6,29.98,ESE,113,0.0,0.0,86,0.00,,,0.00,WUHU216HW,2013-10-10 09:37:00,
2013-10-10 04:42:00,52.7,48.6,29.98,ESE,113,0.0,0.0,86,0.00,,,0.00,WUHU216HW,2013-10-10 09:42:00,
2013-10-10 04:47:00,52.7,48.6,29.98,ESE,113,0.0,0.0,86,0.00,,,0.00,WUHU216HW,2013-10-10 09:47:00,
2013-10-10 04:52:00,52.7,48.6,29.98,ESE,113,0.0,0.0,86,0.00,,,0.00,WUHU216HW,2013-10-10 09:52:00,
2013-10-10 04:57:00,52.6,48.4,29.98,ESE,113,0.0,0.0,86,0.00,,,0.00,WUHU216HW,2013-10-10 09:57:00,
2013-10-10 05:02:00,52.6,48.4,29.98,ESE,113,0.0,0.0,86,0.00,,,0.00,WUHU216HW,2013-10-10 10:02:00,
2013-10-10 05:07:00,52.6,48.4,29.98,ESE,113,0.1,0.4,86,0.00,,,0.00,WUHU216HW,2013-10-10 10:07:00,
2013-10-10 05:12:00,52.6,48.8,29.98,ESE,113,0.0,0.4,87,0.00,,,0.00,WUHU216HW,2013-10-10 10:12:00,
2013-10-10 05:17:00,52.6,48.8,29.98,ESE,113,0.4,0.4,87,0.00,,,0.00,WUHU216HW,2013-10-10 10:17:00,
2013-10-10 05:22:00,52.4,48.6,29.98,ESE,114,0.5,0.7,87,0.00,,,0.00,WUHU216HW,2013-10-10 10:22:00,
2013-10-10 05:27:00,52.4,48.6,29.98,ESE,113,0.0,0.9,87,0.00,,,0.00,WUHU216HW,2013-10-10 10:27:00,
2013-10-10 05:32:00,52.6,48.8,29.98,ESE,113,0.1,0.9,87,0.00,,,0.00,WUHU216HW,2013-10-10 10:32:00,
2013-10-10 05:37:00,52.6,48.8,29.98,ESE,113,0.0,0.4,87,0.00,,,0.00,WUHU216HW,2013-10-10 10:37:00,
2013-10-10 05:42:00,52.6,48.8,29.98,ESE,113,0.0,0.0,87,0.00,,,0.00,WUHU216HW,2013-10-10 10:42:00,
2013-10-10 05:47:00,52.6,48.8,29.98,ESE,113,0.0,0.0,87,0.00,,,0.00,WUHU216HW,2013-10-10 10:47:00,
2013-10-10 05:52:00,52.6,48.8,29.97,SE,135,0.0,0.2,87,0.00,,,0.00,WUHU216HW,2013-10-10 10:52:00,
2013-10-10 05:57:00,52.6,48.8,29.98,SE,135,0.0,0.2,87,0.00,,,0.00,WUHU216HW,2013-10-10 10:57:00,
2013-10-10 06:02:00,52.6,48.8,29.98,SE,135,0.0,0.0,87,0.00,,,0.00,WUHU216HW,2013-10-10 11:02:00,
2013-10-10 06:07:00,52.6,48.8,29.98,SE,135,0.0,0.0,87,0.00,,,0.00,WUHU216HW,2013-10-10 11:07:00,
2013-10-10 06:12:00,52.6,48.8,29.98,SE,135,0.0,0.0,87,0.00,,,0.00,WUHU216HW,2013-10-10 11:12:00,
2013-10-10 06:17:00,52.6,48.8,29.98,SE,135,0.0,0.0,87,0.00,,,0.00,WUHU216HW,2013-10-10 11:17:00,
2013-10-10 06:22:00,52.6,48.8,29.98,SE,135,0.0,0.0,87,0.00,,,0.00,WUHU216HW,2013-10-10 11:22:00,
2013-10-10 06:27:00,52.6,48.8,29.98,SE,135,0.0,0.0,87,0.00,,,0.00,WUHU216HW,2013-10-10 11:27:00,
2013-10-10 06:32:00,52.6,48.8,29.98,SE,135,0.0,0.0,87,0.00,,,0.00,WUHU216HW,2013-10-10 11:32:00,
2013-10-10 06:37:00,52.4,48.6,29.98,SE,135,0.0,0.0,87,0.00,,,0.00,WUHU216HW,2013-10-10 11:37:00,
2013-10-10 06:42:00,52.4,48.6,29.98,SE,135,0.0,0.0,87,0.00,,,0.00,WUHU216HW,2013-10-10 11:42:00,
2013-10-10 06:47:00,52.2,48.4,29.98,SE,135,0.0,0.0,87,0.00,,,0.00,WUHU216HW,2013-10-10 11:47:00,
2013-10-10 06:52:00,52.2,48.4,29.98,SE,135,0.0,0.0,87,0.00,,,0.00,WUHU216HW,2013-10-10 11:52:00,
2013-10-10 06:57:00,52.2,48.4,29.98,ESE,113,0.0,0.2,87,0.00,,,0.00,WUHU216HW,2013-10-10 11:57:00,
2013-10-10 07:02:00,52.2,48.4,29.98,ESE,113,0.0,0.2,87,0.00,,,0.00,WUHU216HW,2013-10-10 12:02:00,
2013-10-10 07:07:00,52.2,48.4,29.98,ESE,113,0.0,0.0,87,0.00,,,0.00,WUHU216HW,2013-10-10 12:07:00,
2013-10-10 07:12:00,52.0,48.3,29.99,ESE,113,0.0,0.0,87,0.00,,,0.00,WUHU216HW,2013-10-10 12:12:00,
2013-10-10 07:17:00,52.0,48.3,29.98,ESE,113,0.0,0.0,87,0.00,,,0.00,WUHU216HW,2013-10-10 12:17:00,
2013-10-10 07:22:00,52.0,48.5,29.99,East,90,0.0,0.0,88,0.00,,,0.00,WUHU216HW,2013-10-10 12:22:00,
2013-10-10 07:27:00,52.0,48.3,29.99,East,90,0.0,0.0,87,0.00,,,0.00,WUHU216HW,2013-10-10 12:27:00,
2013-10-10 07:32:00,52.0,48.5,29.99,East,90,0.0,0.0,88,0.00,,,0.00,WUHU216HW,2013-10-10 12:32:00,
2013-10-10 07:37:00,52.0,48.5,29.99,East,90,0.0,0.0,88,0.00,,,0.00,WUHU216HW,2013-10-10 12:37:00,
2013-10-10 07:42:00,52.2,48.7,29.99,East,90,0.0,0.0,88,0.00,,,0.00,WUHU216HW,2013-10-10 12:42:00,
2013-10-10 07:47:00,51.8,48.3,29.99,East,90,0.0,0.0,88,0.00,,,0.00,WUHU216HW,2013-10-10 12:47:00,
2013-10-10 07:52:00,51.8,48.3,29.99,East,90,0.0,0.0,88,0.00,,,0.00,WUHU216HW,2013-10-10 12:52:00,
2013-10-10 07:57:00,52.0,48.5,29.99,East,90,0.0,0.0,88,0.00,,,0.00,WUHU216HW,2013-10-10 12:57:00,
2013-10-10 08:02:00,52.9,49.8,29.99,East,90,0.0,0.0,89,0.00,,,0.00,WUHU216HW,2013-10-10 13:02:00,
2013-10-10 08:07:00,53.8,50.7,29.99,East,90,0.4,0.4,89,0.00,,,0.00,WUHU216HW,2013-10-10 13:07:00,
2013-10-10 08:12:00,54.5,51.0,29.99,East,90,0.0,0.4,88,0.00,,,0.00,WUHU216HW,2013-10-10 13:12:00,
2013-10-10 08:17:00,55.1,51.6,29.99,East,90,0.0,0.2,88,0.00,,,0.00,WUHU216HW,2013-10-10 13:17:00,
2013-10-10 08:22:00,55.3,51.4,29.99,SSE,148,0.2,0.9,87,0.00,,,0.00,WUHU216HW,2013-10-10 13:22:00,
2013-10-10 08:27:00,55.4,51.6,29.99,ESE,113,0.2,0.9,87,0.00,,,0.00,WUHU216HW,2013-10-10 13:27:00,
2013-10-10 08:32:00,55.4,51.6,29.99,ESE,113,0.2,0.4,87,0.00,,,0.00,WUHU216HW,2013-10-10 13:32:00,
2013-10-10 08:37:00,55.6,51.8,30.00,ESE,113,0.2,0.7,87,0.00,,,0.00,WUHU216HW,2013-10-10 13:37:00,
2013-10-10 08:42:00,55.6,51.8,29.99,East,90,0.0,0.7,87,0.00,,,0.00,WUHU216HW,2013-10-10 13:42:00,
2013-10-10 08:47:00,55.6,51.8,29.99,ESE,110,0.2,0.7,87,0.00,,,0.00,WUHU216HW,2013-10-10 13:47:00,
2013-10-10 08:52:00,55.8,51.9,29.99,ESE,113,0.1,1.1,87,0.00,,,0.00,WUHU216HW,2013-10-10 13:52:00,
2013-10-10 08:57:00,56.2,52.7,29.99,SE,135,0.7,1.3,88,0.00,,,0.00,WUHU216HW,2013-10-10 13:57:00,
2013-10-10 09:02:00,56.3,52.8,30.00,SE,135,0.4,1.3,88,0.00,,,0.00,WUHU216HW,2013-10-10 14:02:00,
2013-10-10 09:07:00,56.5,52.7,30.00,SE,135,0.0,1.1,87,0.00,,,0.00,WUHU216HW,2013-10-10 14:07:00,
2013-10-10 09:12:00,56.7,52.8,30.00,SE,135,1.1,1.1,87,0.00,,,0.00,WUHU216HW,2013-10-10 14:12:00,
2013-10-10 09:17:00,56.9,53.0,30.00,ESE,113,0.0,1.1,87,0.00,,,0.00,WUHU216HW,2013-10-10 14:17:00,
2013-10-10 09:22:00,57.4,53.6,30.00,ENE,68,0.4,1.8,87,0.00,,,0.00,WUHU216HW,2013-10-10 14:22:00,
2013-10-10 09:27:00,57.8,53.9,30.00,ESE,122,0.4,2.0,87,0.00,,,0.00,WUHU216HW,2013-10-10 14:27:00,
2013-10-10 09:32:00,58.5,55.3,30.00,SE,127,0.5,2.0,89,0.00,,,0.00,WUHU216HW,2013-10-10 14:32:00,
2013-10-10 09:37:00,59.0,55.5,30.00,ESE,112,1.2,2.5,88,0.00,,,0.00,WUHU216HW,2013-10-10 14:37:00,
2013-10-10 09:42:00,59.8,56.3,30.00,SE,135,1.1,2.5,88,0.00,,,0.00,WUHU216HW,2013-10-10 14:42:00,
2013-10-10 09:47:00,60.3,56.4,30.00,NE,45,0.2,1.8,87,0.00,,,0.00,WUHU216HW,2013-10-10 14:47:00,
2013-10-10 09:52:00,60.8,57.0,30.00,ESE,113,0.7,2.5,87,0.00,,,0.00,WUHU216HW,2013-10-10 14:52:00,
2013-10-10 09:57:00,61.6,57.3,30.00,East,95,0.5,2.5,86,0.00,,,0.00,WUHU216HW,2013-10-10 14:57:00,
2013-10-10 10:02:00,62.1,57.5,30.00,SSE,161,1.0,2.5,85,0.00,,,0.00,WUHU216HW,2013-10-10 15:02:00,
2013-10-10 10:07:00,62.6,57.7,30.00,SE,135,1.1,2.5,84,0.00,,,0.00,WUHU216HW,2013-10-10 15:07:00,
2013-10-10 10:12:00,63.4,58.4,30.00,ESE,113,1.8,2.5,84,0.00,,,0.00,WUHU216HW,2013-10-10 15:12:00,
2013-10-10 10:17:00,64.1,58.8,30.00,East,90,1.8,1.8,83,0.00,,,0.00,WUHU216HW,2013-10-10 15:17:00,
2013-10-10 10:22:00,64.6,59.1,30.00,NNW,338,0.9,1.8,82,0.00,,,0.00,WUHU216HW,2013-10-10 15:22:00,
2013-10-10 10:27:00,65.3,60.0,30.00,South,180,1.1,1.8,83,0.00,,,0.00,WUHU216HW,2013-10-10 15:27:00,
2013-10-10 10:32:00,65.9,59.6,30.00,ESE,113,2.0,2.0,80,0.00,,,0.00,WUHU216HW,2013-10-10 15:32:00,
2013-10-10 10:37:00,66.4,59.4,30.00,East,90,1.8,2.0,78,0.00,,,0.00,WUHU216HW,2013-10-10 15:37:00,
2013-10-10 10:42:00,67.0,60.0,30.00,ESE,113,1.1,2.2,78,0.00,,,0.00,WUHU216HW,2013-10-10 15:42:00,
2013-10-10 10:47:00,67.5,59.0,29.99,SW,220,2.3,4.7,74,0.00,,,0.00,WUHU216HW,2013-10-10 15:47:00,
2013-10-10 10:52:00,67.5,59.7,29.99,WSW,241,0.9,4.7,76,0.00,,,0.00,WUHU216HW,2013-10-10 15:52:00,
2013-10-10 10:57:00,67.9,59.7,29.99,SW,233,2.2,4.5,75,0.00,,,0.00,WUHU216HW,2013-10-10 15:57:00,
2013-10-10 11:02:00,68.2,60.0,29.99,SSE,162,1.4,3.4,75,0.00,,,0.00,WUHU216HW,2013-10-10 16:02:00,
2013-10-10 11:07:00,68.8,60.1,29.99,NNE,23,0.9,2.9,74,0.00,,,0.00,WUHU216HW,2013-10-10 16:07:00,
2013-10-10 11:12:00,69.3,60.6,29.99,SSW,208,1.0,2.0,74,0.00,,,0.00,WUHU216HW,2013-10-10 16:12:00,
2013-10-10 11:17:00,69.3,58.7,29.99,South,183,2.4,4.7,69,0.00,,,0.00,WUHU216HW,2013-10-10 16:17:00,
2013-10-10 11:22:00,69.5,59.7,29.99,ESE,105,0.8,4.7,71,0.00,,,0.00,WUHU216HW,2013-10-10 16:22:00,
2013-10-10 11:27:00,69.7,59.4,29.99,SW,225,1.8,2.5,70,0.00,,,0.00,WUHU216HW,2013-10-10 16:27:00,
2013-10-10 11:32:00,69.5,58.4,29.99,SW,219,1.6,2.5,68,0.00,,,0.00,WUHU216HW,2013-10-10 16:32:00,
2013-10-10 11:37:00,69.5,59.2,29.99,West,270,0.9,2.5,70,0.00,,,0.00,WUHU216HW,2013-10-10 16:37:00,
2013-10-10 11:42:00,69.8,58.0,29.98,SW,225,3.8,4.7,66,0.00,,,0.00,WUHU216HW,2013-10-10 16:42:00,
2013-10-10 11:47:00,69.8,58.3,29.99,WSW,243,2.0,4.7,67,0.00,,,0.00,WUHU216HW,2013-10-10 16:47:00,
2013-10-10 11:52:00,69.8,58.0,29.99,South,189,0.5,3.8,66,0.00,,,0.00,WUHU216HW,2013-10-10 16:52:00,
2013-10-10 11:57:00,70.0,57.2,29.99,SW,226,3.5,5.1,64,0.00,,,0.00,WUHU216HW,2013-10-10 16:57:00,
2013-10-10 12:02:00,69.8,57.5,29.98,WSW,240,2.6,5.1,65,0.00,,,0.00,WUHU216HW,2013-10-10 17:02:00,
2013-10-10 12:07:00,70.4,58.9,29.99,East,90,1.8,4.3,67,0.00,,,0.00,WUHU216HW,2013-10-10 17:07:00,
2013-10-10 12:12:00,71.1,58.7,29.98,SW,219,1.3,2.2,65,0.00,,,0.00,WUHU216HW,2013-10-10 17:12:00,
2013-10-10 12:17:00,71.1,59.1,29.98,South,179,1.7,4.3,66,0.00,,,0.00,WUHU216HW,2013-10-10 17:17:00,
2013-10-10 12:22:00,71.1,57.9,29.98,WSW,248,3.6,4.3,63,0.00,,,0.00,WUHU216HW,2013-10-10 17:22:00,
2013-10-10 12:27:00,71.3,59.3,29.98,SSW,206,2.0,4.3,66,0.00,,,0.00,WUHU216HW,2013-10-10 17:27:00,
2013-10-10 12:32:00,72.0,60.4,29.98,SW,225,1.6,4.3,67,0.00,,,0.00,WUHU216HW,2013-10-10 17:32:00,
2013-10-10 12:37:00,72.0,60.0,29.97,WSW,248,1.3,3.4,66,0.00,,,0.00,WUHU216HW,2013-10-10 17:37:00,
2013-10-10 12:42:00,72.2,60.2,29.97,SE,126,1.2,3.4,66,0.00,,,0.00,WUHU216HW,2013-10-10 17:42:00,
2013-10-10 12:47:00,72.7,60.7,29.97,ESE,113,0.8,1.8,66,0.00,,,0.00,WUHU216HW,2013-10-10 17:47:00,
2013-10-10 12:52:00,73.1,61.0,29.97,NE,45,2.2,2.9,66,0.00,,,0.00,WUHU216HW,2013-10-10 17:52:00,
2013-10-10 12:57:00,73.1,60.6,29.96,SW,229,1.5,4.3,65,0.00,,,0.00,WUHU216HW,2013-10-10 17:57:00,
2013-10-10 13:02:00,73.1,60.6,29.96,SSW,194,1.2,4.3,65,0.00,,,0.00,WUHU216HW,2013-10-10 18:02:00,
2013-10-10 13:07:00,73.1,60.6,29.96,SSW,199,2.1,3.4,65,0.00,,,0.00,WUHU216HW,2013-10-10 18:07:00,
2013-10-10 13:12:00,73.4,60.0,29.96,SSE,162,1.3,3.4,63,0.00,,,0.00,WUHU216HW,2013-10-10 18:12:00,
2013-10-10 13:17:00,73.4,59.6,29.95,East,86,2.0,3.6,62,0.00,,,0.00,WUHU216HW,2013-10-10 18:17:00,
2013-10-10 13:22:00,73.4,60.0,29.95,SSE,158,0.7,3.6,63,0.00,,,0.00,WUHU216HW,2013-10-10 18:22:00,
2013-10-10 13:27:00,73.8,60.0,29.95,NW,315,2.2,3.4,62,0.00,,,0.00,WUHU216HW,2013-10-10 18:27:00,
2013-10-10 13:32:00,73.8,60.4,29.94,SSE,151,1.5,3.4,63,0.00,,,0.00,WUHU216HW,2013-10-10 18:32:00,
2013-10-10 13:37:00,73.8,60.4,29.94,ESE,110,2.6,3.8,63,0.00,,,0.00,WUHU216HW,2013-10-10 18:37:00,
2013-10-10 13:42:00,74.0,59.7,29.94,ESE,119,2.0,3.8,61,0.00,,,0.00,WUHU216HW,2013-10-10 18:42:00,
2013-10-10 13:47:00,74.2,60.8,29.93,West,270,1.1,4.0,63,0.00,,,0.00,WUHU216HW,2013-10-10 18:47:00,
2013-10-10 13:52:00,74.3,60.9,29.93,SE,125,1.0,4.3,63,0.00,,,0.00,WUHU216HW,2013-10-10 18:52:00,
2013-10-10 13:57:00,74.3,60.5,29.93,ESE,121,2.3,4.3,62,0.00,,,0.00,WUHU216HW,2013-10-10 18:57:00,
2013-10-10 14:02:00,74.3,60.0,29.93,ESE,113,1.8,4.3,61,0.00,,,0.00,WUHU216HW,2013-10-10 19:02:00,
2013-10-10 14:07:00,74.3,60.5,29.93,SE,128,1.3,2.5,62,0.00,,,0.00,WUHU216HW,2013-10-10 19:07:00,
2013-10-10 14:12:00,74.3,59.6,29.93,ESE,108,1.4,3.6,60,0.00,,,0.00,WUHU216HW,2013-10-10 19:12:00,
2013-10-10 14:17:00,74.3,58.6,29.92,SE,135,2.0,3.6,58,0.00,,,0.00,WUHU216HW,2013-10-10 19:17:00,
2013-10-10 14:22:00,74.3,59.6,29.92,SE,142,1.3,3.4,60,0.00,,,0.00,WUHU216HW,2013-10-10 19:22:00,
2013-10-10 14:27:00,74.3,59.6,29.92,SSW,203,2.9,2.9,60,0.00,,,0.00,WUHU216HW,2013-10-10 19:27:00,
2013-10-10 14:32:00,74.5,57.8,29.92,SSW,206,2.7,4.9,56,0.00,,,0.00,WUHU216HW,2013-10-10 19:32:00,
2013-10-10 14:37:00,74.5,58.8,29.92,ESE,105,1.8,5.4,58,0.00,,,0.00,WUHU216HW,2013-10-10 19:37:00,
2013-10-10 14:42:00,74.5,57.2,29.91,WSW,248,2.5,5.4,55,0.00,,,0.00,WUHU216HW,2013-10-10 19:42:00,
2013-10-10 14:47:00,74.5,58.8,29.91,SSE,163,1.7,2.9,58,0.00,,,0.00,WUHU216HW,2013-10-10 19:47:00,
2013-10-10 14:52:00,74.5,59.2,29.91,South,171,1.8,2.9,59,0.00,,,0.00,WUHU216HW,2013-10-10 19:52:00,
2013-10-10 14:57:00,74.7,58.4,29.91,SE,129,2.4,3.4,57,0.00,,,0.00,WUHU216HW,2013-10-10 19:57:00,
2013-10-10 15:02:00,74.7,58.4,29.91,ENE,68,2.2,4.3,57,0.00,,,0.00,WUHU216HW,2013-10-10 20:02:00,
2013-10-10 15:07:00,74.7,58.0,29.91,ESE,113,1.8,4.3,56,0.00,,,0.00,WUHU216HW,2013-10-10 20:07:00,
2013-10-10 15:12:00,74.7,59.0,29.90,ESE,113,1.6,3.1,58,0.00,,,0.00,WUHU216HW,2013-10-10 20:12:00,
2013-10-10 15:17:00,74.9,59.1,29.91,ESE,110,1.9,2.9,58,0.00,,,0.00,WUHU216HW,2013-10-10 20:17:00,
2013-10-10 15:22:00,74.7,58.4,29.91,ESE,120,1.7,3.4,57,0.00,,,0.00,WUHU216HW,2013-10-10 20:22:00,
2013-10-10 15:27:00,74.7,58.0,29.90,ENE,68,3.6,3.6,56,0.00,,,0.00,WUHU216HW,2013-10-10 20:27:00,
2013-10-10 15:32:00,74.5,57.8,29.90,ESE,106,2.8,4.0,56,0.00,,,0.00,WUHU216HW,2013-10-10 20:32:00,
2013-10-10 15:37:00,74.5,58.2,29.90,SE,126,2.3,4.0,57,0.00,,,0.00,WUHU216HW,2013-10-10 20:37:00,
2013-10-10 15:42:00,74.5,58.8,29.90,ESE,120,1.3,3.4,58,0.00,,,0.00,WUHU216HW,2013-10-10 20:42:00,
2013-10-10 15:47:00,74.3,58.6,29.90,ESE,118,1.3,3.6,58,0.00,,,0.00,WUHU216HW,2013-10-10 20:47:00,
2013-10-10 15:52:00,74.2,56.3,29.90,ESE,104,3.1,3.6,54,0.00,,,0.00,WUHU216HW,2013-10-10 20:52:00,
2013-10-10 15:57:00,74.2,57.9,29.90,South,180,2.0,3.8,57,0.00,,,0.00,WUHU216HW,2013-10-10 20:57:00,
2013-10-10 16:02:00,74.2,57.4,29.90,ESE,114,1.7,3.8,56,0.00,,,0.00,WUHU216HW,2013-10-10 21:02:00,
2013-10-10 16:07:00,74.2,57.4,29.90,SE,133,1.4,4.7,56,0.00,,,0.00,WUHU216HW,2013-10-10 21:07:00,
2013-10-10 16:12:00,74.2,57.4,29.90,ESE,113,2.5,4.7,56,0.00,,,0.00,WUHU216HW,2013-10-10 21:12:00,
2013-10-10 16:17:00,74.2,57.4,29.89,SE,128,2.0,2.9,56,0.00,,,0.00,WUHU216HW,2013-10-10 21:17:00,
2013-10-10 16:22:00,74.2,57.9,29.89,South,180,0.8,2.9,57,0.00,,,0.00,WUHU216HW,2013-10-10 21:22:00,
2013-10-10 16:27:00,74.2,57.9,29.89,ESE,116,1.7,2.5,57,0.00,,,0.00,WUHU216HW,2013-10-10 21:27:00,
2013-10-10 16:32:00,74.0,56.2,29.89,East,90,3.2,4.3,54,0.00,,,0.00,WUHU216HW,2013-10-10 21:32:00,
2013-10-10 16:37:00,74.0,57.3,29.89,SSE,158,1.8,4.3,56,0.00,,,0.00,WUHU216HW,2013-10-10 21:37:00,
2013-10-10 16:42:00,73.8,57.1,29.88,East,90,1.1,2.5,56,0.00,,,0.00,WUHU216HW,2013-10-10 21:42:00,
2013-10-10 16:47:00,73.6,56.9,29.89,ESE,119,1.3,2.5,56,0.00,,,0.00,WUHU216HW,2013-10-10 21:47:00,
2013-10-10 16:52:00,73.4,56.7,29.89,ESE,113,1.8,1.8,56,0.00,,,0.00,WUHU216HW,2013-10-10 21:52:00,
2013-10-10 16:57:00,73.4,55.6,29.89,East,90,1.3,2.5,54,0.00,,,0.00,WUHU216HW,2013-10-10 21:57:00,
2013-10-10 17:02:00,73.4,56.7,29.89,East,100,1.0,2.5,56,0.00,,,0.00,WUHU216HW,2013-10-10 22:02:00,
2013-10-10 17:07:00,73.3,56.5,29.88,SSW,203,1.3,2.0,56,0.00,,,0.00,WUHU216HW,2013-10-10 22:07:00,
2013-10-10 17:12:00,73.3,57.0,29.88,SSE,158,1.0,2.5,57,0.00,,,0.00,WUHU216HW,2013-10-10 22:12:00,
2013-10-10 17:17:00,73.3,57.0,29.88,SE,135,0.4,2.5,57,0.00,,,0.00,WUHU216HW,2013-10-10 22:17:00,
2013-10-10 17:22:00,73.3,57.0,29.88,SE,132,0.9,2.2,57,0.00,,,0.00,WUHU216HW,2013-10-10 22:22:00,
2013-10-10 17:27:00,73.3,57.5,29.88,SE,135,1.1,2.2,58,0.00,,,0.00,WUHU216HW,2013-10-10 22:27:00,
2013-10-10 17:32:00,73.1,57.3,29.88,SE,135,0.6,1.8,58,0.00,,,0.00,WUHU216HW,2013-10-10 22:32:00,
2013-10-10 17:37:00,72.7,57.5,29.88,SE,135,0.3,1.1,59,0.00,,,0.00,WUHU216HW,2013-10-10 22:37:00,
2013-10-10 17:42:00,72.4,57.7,29.88,South,180,0.7,1.1,60,0.00,,,0.00,WUHU216HW,2013-10-10 22:42:00,
2013-10-10 17:47:00,72.2,57.5,29.88,ENE,68,0.9,1.3,60,0.00,,,0.00,WUHU216HW,2013-10-10 22:47:00,
2013-10-10 17:52:00,72.0,56.9,29.87,ESE,113,0.7,1.6,59,0.00,,,0.00,WUHU216HW,2013-10-10 22:52:00,
2013-10-10 17:57:00,71.6,57.1,29.87,NE,45,1.1,2.5,60,0.00,,,0.00,WUHU216HW,2013-10-10 22:57:00,
2013-10-10 18:02:00,71.3,56.7,29.87,SE,135,0.7,2.5,60,0.00,,,0.00,WUHU216HW,2013-10-10 23:02:00,
2013-10-10 18:07:00,70.7,56.3,29.87,East,90,0.4,0.7,60,0.00,,,0.00,WUHU216HW,2013-10-10 23:07:00,
2013-10-10 18:12:00,70.2,55.8,29.87,ESE,113,0.1,0.7,60,0.00,,,0.00,WUHU216HW,2013-10-10 23:12:00,
2013-10-10 18:17:00,69.8,55.9,29.87,ESE,113,0.2,1.8,61,0.00,,,0.00,WUHU216HW,2013-10-10 23:17:00,
2013-10-10 18:22:00,69.5,55.9,29.86,SE,135,0.4,1.8,62,0.00,,,0.00,WUHU216HW,2013-10-10 23:22:00,
2013-10-10 18:27:00,68.9,55.4,29.86,ESE,113,0.4,1.1,62,0.00,,,0.00,WUHU216HW,2013-10-10 23:27:00,
2013-10-10 18:32:00,68.6,55.4,29.86,ESE,113,0.6,0.7,63,0.00,,,0.00,WUHU216HW,2013-10-10 23:32:00,
2013-10-10 18:37:00,68.2,55.1,29.86,ESE,113,0.4,0.7,63,0.00,,,0.00,WUHU216HW,2013-10-10 23:37:00,
2013-10-10 18:42:00,67.9,55.2,29.86,ESE,113,0.4,0.7,64,0.00,,,0.00,WUHU216HW,2013-10-10 23:42:00,
2013-10-10 18:47:00,67.7,55.4,29.86,ESE,113,0.2,0.7,65,0.00,,,0.00,WUHU216HW,2013-10-10 23:47:00,
2013-10-10 18:52:00,67.3,55.1,29.86,ESE,113,0.4,0.4,65,0.00,,,0.00,WUHU216HW,2013-10-10 23:52:00,
2013-10-10 18:57:00,67.0,54.8,29.86,ESE,113,0.4,0.4,65,0.00,,,0.00,WUHU216HW,2013-10-10 23:57:00,
2013-10-10 19:02:00,66.6,54.5,29.86,SE,135,0.9,1.1,65,0.00,,,0.00,WUHU216HW,2013-10-11 00:02:00,
2013-10-10 19:07:00,66.4,54.7,29.86,ESE,113,0.9,1.1,66,0.00,,,0.00,WUHU216HW,2013-10-11 00:07:00,
2013-10-10 19:12:00,66.2,54.9,29.86,ESE,113,1.0,1.3,67,0.00,,,0.00,WUHU216HW,2013-10-11 00:12:00,
2013-10-10 19:17:00,65.9,54.5,29.86,SE,135,0.9,1.3,67,0.00,,,0.00,WUHU216HW,2013-10-11 00:17:00,
2013-10-10 19:22:00,65.7,54.8,29.86,ESE,113,1.0,1.1,68,0.00,,,0.00,WUHU216HW,2013-10-11 00:22:00,
2013-10-10 19:27:00,65.5,54.6,29.86,ESE,123,1.0,2.0,68,0.00,,,0.00,WUHU216HW,2013-10-11 00:27:00,
2013-10-10 19:32:00,65.3,54.9,29.86,ESE,113,1.6,2.0,69,0.00,,,0.00,WUHU216HW,2013-10-11 00:32:00,
2013-10-10 19:37:00,65.2,54.7,29.86,SE,126,1.4,1.8,69,0.00,,,0.00,WUHU216HW,2013-10-11 00:37:00,
2013-10-10 19:42:00,65.0,54.6,29.86,ESE,113,1.6,1.8,69,0.00,,,0.00,WUHU216HW,2013-10-11 00:42:00,
2013-10-10 19:47:00,64.8,54.9,29.86,ESE,113,0.9,1.8,70,0.00,,,0.00,WUHU216HW,2013-10-11 00:47:00,
2013-10-10 19:52:00,64.6,54.7,29.86,ESE,113,1.1,2.5,70,0.00,,,0.00,WUHU216HW,2013-10-11 00:52:00,
2013-10-10 19:57:00,64.4,54.5,29.85,SSE,152,0.8,2.5,70,0.00,,,0.00,WUHU216HW,2013-10-11 00:57:00,
2013-10-10 20:02:00,64.3,54.4,29.85,ESE,113,1.1,1.3,70,0.00,,,0.00,WUHU216HW,2013-10-11 01:02:00,
2013-10-10 20:07:00,64.1,54.5,29.85,ESE,113,1.1,1.1,71,0.00,,,0.00,WUHU216HW,2013-10-11 01:07:00,
2013-10-10 20:12:00,64.1,54.5,29.85,ESE,113,0.4,1.1,71,0.00,,,0.00,WUHU216HW,2013-10-11 01:12:00,
2013-10-10 20:17:00,63.9,54.4,29.85,SE,128,0.6,1.1,71,0.00,,,0.00,WUHU216HW,2013-10-11 01:17:00,
2013-10-10 20:22:00,63.7,54.5,29.85,ESE,113,1.1,1.1,72,0.00,,,0.00,WUHU216HW,2013-10-11 01:22:00,
2013-10-10 20:27:00,63.7,54.5,29.85,ESE,113,0.6,1.6,72,0.00,,,0.00,WUHU216HW,2013-10-11 01:27:00,
2013-10-10 20:32:00,63.5,54.7,29.85,SSE,158,2.2,2.2,73,0.00,,,0.00,WUHU216HW,2013-10-11 01:32:00,
2013-10-10 20:37:00,63.5,54.7,29.85,ESE,113,1.5,2.2,73,0.00,,,0.00,WUHU216HW,2013-10-11 01:37:00,
2013-10-10 20:42:00,63.4,54.5,29.85,SE,126,0.9,1.8,73,0.00,,,0.00,WUHU216HW,2013-10-11 01:42:00,
2013-10-10 20:47:00,63.2,54.4,29.85,SE,135,0.8,1.1,73,0.00,,,0.00,WUHU216HW,2013-10-11 01:47:00,
2013-10-10 20:52:00,63.0,54.5,29.85,East,90,1.3,1.3,74,0.00,,,0.00,WUHU216HW,2013-10-11 01:52:00,
2013-10-10 20:57:00,63.0,54.5,29.85,ESE,113,1.1,1.3,74,0.00,,,0.00,WUHU216HW,2013-10-11 01:57:00,
2013-10-10 21:02:00,62.8,54.4,29.85,East,90,1.1,1.1,74,0.00,,,0.00,WUHU216HW,2013-10-11 02:02:00,
2013-10-10 21:07:00,62.6,53.8,29.85,SE,135,1.1,1.1,73,0.00,,,0.00,WUHU216HW,2013-10-11 02:07:00,
2013-10-10 21:12:00,62.5,54.0,29.85,ESE,113,0.7,1.1,74,0.00,,,0.00,WUHU216HW,2013-10-11 02:12:00,
2013-10-10 21:17:00,62.3,53.8,29.85,ESE,113,0.6,1.1,74,0.00,,,0.00,WUHU216HW,2013-10-11 02:17:00,
2013-10-10 21:22:00,62.3,54.2,29.85,East,100,1.0,1.8,75,0.00,,,0.00,WUHU216HW,2013-10-11 02:22:00,
2013-10-10 21:27:00,62.1,54.1,29.85,ESE,113,1.1,1.8,75,0.00,,,0.00,WUHU216HW,2013-10-11 02:27:00,
2013-10-10 21:32:00,61.9,53.9,29.86,SE,135,0.4,1.1,75,0.00,,,0.00,WUHU216HW,2013-10-11 02:32:00,
2013-10-10 21:37:00,61.9,54.3,29.86,SE,135,1.1,1.1,76,0.00,,,0.00,WUHU216HW,2013-10-11 02:37:00,
2013-10-10 21:42:00,61.7,54.1,29.85,SE,135,1.1,1.8,76,0.00,,,0.00,WUHU216HW,2013-10-11 02:42:00,
2013-10-10 21:47:00,61.6,53.9,29.85,SE,135,1.8,2.9,76,0.00,,,0.00,WUHU216HW,2013-10-11 02:47:00,
2013-10-10 21:52:00,61.6,53.9,29.86,ESE,113,0.9,2.9,76,0.00,,,0.00,WUHU216HW,2013-10-11 02:52:00,
2013-10-10 21:57:00,61.6,53.9,29.85,ESE,117,0.4,1.6,76,0.00,,,0.00,WUHU216HW,2013-10-11 02:57:00,
2013-10-10 22:02:00,61.4,53.7,29.85,East,96,0.8,1.1,76,0.00,,,0.00,WUHU216HW,2013-10-11 03:02:00,
2013-10-10 22:07:00,61.2,54.0,29.85,ESE,113,1.8,1.8,77,0.00,,,0.00,WUHU216HW,2013-10-11 03:07:00,
2013-10-10 22:12:00,61.2,54.0,29.85,SE,135,1.1,1.8,77,0.00,,,0.00,WUHU216HW,2013-10-11 03:12:00,
2013-10-10 22:17:00,61.0,54.2,29.85,ESE,113,0.4,1.8,78,0.00,,,0.00,WUHU216HW,2013-10-11 03:17:00,
2013-10-10 22:22:00,61.0,54.2,29.85,ESE,113,0.7,1.1,78,0.00,,,0.00,WUHU216HW,2013-10-11 03:22:00,
2013-10-10 22:27:00,61.0,54.2,29.85,ESE,113,1.0,1.1,78,0.00,,,0.00,WUHU216HW,2013-10-11 03:27:00,
2013-10-10 22:32:00,60.8,54.4,29.85,SE,131,0.6,1.1,79,0.00,,,0.00,WUHU216HW,2013-10-11 03:32:00,
2013-10-10 22:37:00,60.8,54.4,29.85,SE,135,0.7,1.1,79,0.00,,,0.00,WUHU216HW,2013-10-11 03:37:00,
2013-10-10 22:42:00,60.7,54.2,29.85,ESE,113,0.4,1.1,79,0.00,,,0.00,WUHU216HW,2013-10-11 03:42:00,
2013-10-10 22:47:00,60.7,54.5,29.85,ESE,119,0.6,0.9,80,0.00,,,0.00,WUHU216HW,2013-10-11 03:47:00,
2013-10-10 22:52:00,60.7,54.9,29.85,East,100,0.8,1.1,81,0.00,,,0.00,WUHU216HW,2013-10-11 03:52:00,
2013-10-10 22:57:00,60.7,54.9,29.85,ESE,113,0.6,1.1,81,0.00,,,0.00,WUHU216HW,2013-10-11 03:57:00,
2013-10-10 23:01:00,60.7,54.9,29.85,ESE,113,0.6,1.1,81,0.00,,,0.00,WUHU216HW,2013-10-11 04:01:00,
2013-10-10 23:06:00,60.5,55.0,29.85,SE,135,1.3,1.6,82,0.00,,,0.00,WUHU216HW,2013-10-11 04:06:00,
2013-10-10 23:11:00,60.5,55.0,29.85,ESE,103,1.5,2.2,82,0.00,,,0.00,WUHU216HW,2013-10-11 04:11:00,
2013-10-10 23:16:00,60.5,55.0,29.85,SE,144,1.7,2.7,82,0.00,,,0.00,WUHU216HW,2013-10-11 04:16:00,
2013-10-10 23:21:00,60.5,55.4,29.85,ESE,113,1.1,2.7,83,0.00,,,0.00,WUHU216HW,2013-10-11 04:21:00,
2013-10-10 23:26:00,60.5,55.4,29.84,SE,135,1.8,1.8,83,0.00,,,0.00,WUHU216HW,2013-10-11 04:26:00,
2013-10-10 23:31:00,60.5,55.6,29.84,SE,131,1.1,2.0,84,0.00,,,0.00,WUHU216HW,2013-10-11 04:31:00,
2013-10-10 23:36:00,60.3,55.2,29.84,SE,130,0.4,2.0,83,0.00,,,0.00,WUHU216HW,2013-10-11 04:36:00,
2013-10-10 23:41:00,60.3,55.4,29.84,SE,135,0.4,1.8,84,0.00,,,0.00,WUHU216HW,2013-10-11 04:41:00,
2013-10-10 23:46:00,60.3,55.4,29.84,ESE,121,0.6,1.8,84,0.00,,,0.00,WUHU216HW,2013-10-11 04:46:00,
2013-10-10 23:51:00,60.1,55.6,29.84,SE,135,0.4,1.3,85,0.00,,,0.00,WUHU216HW,2013-10-11 04:51:00,
2013-10-10 23:56:00,60.1,55.6,29.84,ESE,113,0.9,1.3,85,0.00,,,0.00,WUHU216HW,2013-10-11 04:56:00,